sensor_id;sensor_type;location;lat;lon;timestamp;pressure;altitude;pressure_sealevel;temperature;humidity
50732;BME280;36700;50.488;2.544;2023-05-18T00:01:12;102365.19;;;17.45;48.49
50732;BME280;36700;50.488;2.544;2023-05-18T00:03:40;102362.66;;;17.44;48.29
50732;BME280;36700;50.488;2.544;2023-05-18T00:06:06;102367.25;;;17.43;48.33
50732;BME280;36700;50.488;2.544;2023-05-18T00:08:33;102357.41;;;17.42;48.24
50732;BME280;36700;50.488;2.544;2023-05-18T00:11:02;102360.34;;;17.41;48.27
50732;BME280;36700;50.488;2.544;2023-05-18T00:13:29;102356.81;;;17.40;48.36
50732;BME280;36700;50.488;2.544;2023-05-18T00:15:55;102366.00;;;17.39;48.81
50732;BME280;36700;50.488;2.544;2023-05-18T00:18:21;102349.03;;;17.37;48.58
50732;BME280;36700;50.488;2.544;2023-05-18T00:20:50;102351.97;;;17.35;48.64
50732;BME280;36700;50.488;2.544;2023-05-18T00:23:16;102357.41;;;17.35;48.53
50732;BME280;36700;50.488;2.544;2023-05-18T00:25:42;102352.19;;;17.34;48.67
50732;BME280;36700;50.488;2.544;2023-05-18T00:28:08;102358.69;;;17.33;48.56
50732;BME280;36700;50.488;2.544;2023-05-18T00:30:34;102346.09;;;17.32;48.42
50732;BME280;36700;50.488;2.544;2023-05-18T00:33:00;102356.97;;;17.32;48.83
50732;BME280;36700;50.488;2.544;2023-05-18T00:35:26;102354.47;;;17.30;48.70
50732;BME280;36700;50.488;2.544;2023-05-18T00:37:52;102353.84;;;17.28;49.19
50732;BME280;36700;50.488;2.544;2023-05-18T00:40:18;102363.03;;;17.27;49.19
50732;BME280;36700;50.488;2.544;2023-05-18T00:42:44;102365.97;;;17.26;48.96
50732;BME280;36700;50.488;2.544;2023-05-18T00:45:10;102358.84;;;17.25;48.72
50732;BME280;36700;50.488;2.544;2023-05-18T00:47:36;102362.63;;;17.23;48.78
50732;BME280;36700;50.488;2.544;2023-05-18T00:50:02;102350.28;;;17.21;49.09
50732;BME280;36700;50.488;2.544;2023-05-18T00:52:28;102357.38;;;17.22;49.06
50732;BME280;36700;50.488;2.544;2023-05-18T00:54:54;102352.13;;;17.20;48.76
50732;BME280;36700;50.488;2.544;2023-05-18T00:57:22;102355.91;;;17.19;49.30
50732;BME280;36700;50.488;2.544;2023-05-18T00:59:48;102357.81;;;17.19;49.01
50732;BME280;36700;50.488;2.544;2023-05-18T01:02:16;102356.13;;;17.18;49.15
50732;BME280;36700;50.488;2.544;2023-05-18T01:04:42;102344.59;;;17.16;49.10
50732;BME280;36700;50.488;2.544;2023-05-18T01:07:08;102349.41;;;17.14;49.25
50732;BME280;36700;50.488;2.544;2023-05-18T01:09:35;102352.34;;;17.12;49.33
50732;BME280;36700;50.488;2.544;2023-05-18T01:12:31;102349.81;;;17.11;49.13
50732;BME280;36700;50.488;2.544;2023-05-18T01:15:15;102353.59;;;17.09;49.36
50732;BME280;36700;50.488;2.544;2023-05-18T01:20:31;102350.25;;;17.07;49.21
50732;BME280;36700;50.488;2.544;2023-05-18T01:23:11;102351.28;;;17.06;49.23
50732;BME280;36700;50.488;2.544;2023-05-18T01:25:46;102349.63;;;17.05;49.35
50732;BME280;36700;50.488;2.544;2023-05-18T01:28:17;102340.63;;;17.05;49.36
50732;BME280;36700;50.488;2.544;2023-05-18T01:30:45;102348.16;;;17.03;49.32
50732;BME280;36700;50.488;2.544;2023-05-18T01:33:12;102351.84;;;17.02;49.26
50732;BME280;36700;50.488;2.544;2023-05-18T01:35:39;102346.66;;;17.00;49.23
50732;BME280;36700;50.488;2.544;2023-05-18T01:38:06;102346.41;;;17.02;49.58
50732;BME280;36700;50.488;2.544;2023-05-18T01:40:36;102350.19;;;17.01;49.23
50732;BME280;36700;50.488;2.544;2023-05-18T01:43:10;102350.59;;;16.98;49.47
50732;BME280;36700;50.488;2.544;2023-05-18T01:45:38;102345.16;;;16.98;49.40
50732;BME280;36700;50.488;2.544;2023-05-18T01:48:09;102349.94;;;16.95;49.51
50732;BME280;36700;50.488;2.544;2023-05-18T01:50:40;102344.50;;;16.95;49.34
50732;BME280;36700;50.488;2.544;2023-05-18T01:53:24;102344.75;;;16.94;49.15
50732;BME280;36700;50.488;2.544;2023-05-18T01:55:53;102345.75;;;16.93;49.42
50732;BME280;36700;50.488;2.544;2023-05-18T01:58:21;102343.28;;;16.91;49.30
50732;BME280;36700;50.488;2.544;2023-05-18T02:00:47;102339.69;;;16.91;49.43
50732;BME280;36700;50.488;2.544;2023-05-18T02:03:13;102336.16;;;16.90;49.58
50732;BME280;36700;50.488;2.544;2023-05-18T02:05:39;102339.91;;;16.89;49.53
50732;BME280;36700;50.488;2.544;2023-05-18T02:08:05;102334.69;;;16.88;49.74
50732;BME280;36700;50.488;2.544;2023-05-18T02:10:31;102329.25;;;16.88;49.56
50732;BME280;36700;50.488;2.544;2023-05-18T02:12:57;102334.88;;;16.86;49.60
50732;BME280;36700;50.488;2.544;2023-05-18T02:15:23;102333.41;;;16.83;49.49
50732;BME280;36700;50.488;2.544;2023-05-18T02:17:49;102339.69;;;16.84;49.96
50732;BME280;36700;50.488;2.544;2023-05-18T02:20:15;102332.56;;;16.83;49.46
50732;BME280;36700;50.488;2.544;2023-05-18T02:22:43;102325.88;;;16.79;50.01
50732;BME280;36700;50.488;2.544;2023-05-18T02:25:10;102316.25;;;16.76;49.56
50732;BME280;36700;50.488;2.544;2023-05-18T02:27:36;102328.59;;;16.79;50.00
50732;BME280;36700;50.488;2.544;2023-05-18T02:30:03;102332.34;;;16.78;49.47
50732;BME280;36700;50.488;2.544;2023-05-18T02:32:30;102333.38;;;16.77;49.39
50732;BME280;36700;50.488;2.544;2023-05-18T02:35:06;102337.34;;;16.74;49.17
50732;BME280;36700;50.488;2.544;2023-05-18T02:37:33;102336.09;;;16.77;49.52
50732;BME280;36700;50.488;2.544;2023-05-18T02:40:10;102331.91;;;16.74;49.48
50732;BME280;36700;50.488;2.544;2023-05-18T02:42:37;102334.84;;;16.73;49.63
50732;BME280;36700;50.488;2.544;2023-05-18T02:45:03;102332.13;;;16.73;49.50
50732;BME280;36700;50.488;2.544;2023-05-18T02:47:29;102333.13;;;16.72;49.89
50732;BME280;36700;50.488;2.544;2023-05-18T02:49:55;102335.84;;;16.72;49.54
50732;BME280;36700;50.488;2.544;2023-05-18T02:52:21;102331.69;;;16.69;49.80
50732;BME280;36700;50.488;2.544;2023-05-18T02:54:47;102330.00;;;16.68;49.86
50732;BME280;36700;50.488;2.544;2023-05-18T02:57:13;102334.59;;;16.67;49.72
50732;BME280;36700;50.488;2.544;2023-05-18T02:59:39;102339.19;;;16.67;49.74
50732;BME280;36700;50.488;2.544;2023-05-18T03:02:05;102341.91;;;16.67;49.85
50732;BME280;36700;50.488;2.544;2023-05-18T03:04:31;102339.38;;;16.65;49.57
50732;BME280;36700;50.488;2.544;2023-05-18T03:06:57;102344.00;;;16.65;50.05
50732;BME280;36700;50.488;2.544;2023-05-18T03:09:28;102335.41;;;16.61;49.46
50732;BME280;36700;50.488;2.544;2023-05-18T03:11:54;102337.09;;;16.62;49.45
50732;BME280;36700;50.488;2.544;2023-05-18T03:14:20;102333.53;;;16.62;49.55
50732;BME280;36700;50.488;2.544;2023-05-18T03:16:46;102331.03;;;16.60;49.68
50732;BME280;36700;50.488;2.544;2023-05-18T03:19:12;102325.59;;;16.60;49.75
50732;BME280;36700;50.488;2.544;2023-05-18T03:21:40;102325.78;;;16.59;49.68
50732;BME280;36700;50.488;2.544;2023-05-18T03:24:07;102331.63;;;16.55;49.82
50732;BME280;36700;50.488;2.544;2023-05-18T03:26:33;102329.75;;;16.56;49.69
50732;BME280;36700;50.488;2.544;2023-05-18T03:28:59;102337.91;;;16.56;49.73
50732;BME280;36700;50.488;2.544;2023-05-18T03:31:26;102328.91;;;16.55;49.66
50732;BME280;36700;50.488;2.544;2023-05-18T03:33:52;102328.09;;;16.55;49.75
50732;BME280;36700;50.488;2.544;2023-05-18T03:36:18;102325.75;;;16.52;49.58
50732;BME280;36700;50.488;2.544;2023-05-18T03:38:47;102332.03;;;16.52;49.61
50732;BME280;36700;50.488;2.544;2023-05-18T03:41:13;102335.78;;;16.51;49.69
50732;BME280;36700;50.488;2.544;2023-05-18T03:43:39;102334.94;;;16.51;49.84
50732;BME280;36700;50.488;2.544;2023-05-18T03:46:05;102342.28;;;16.50;49.62
50732;BME280;36700;50.488;2.544;2023-05-18T03:48:31;102340.56;;;16.49;49.74
50732;BME280;36700;50.488;2.544;2023-05-18T03:50:57;102342.47;;;16.49;49.75
50732;BME280;36700;50.488;2.544;2023-05-18T03:53:23;102337.03;;;16.49;49.64
50732;BME280;36700;50.488;2.544;2023-05-18T03:55:49;102339.09;;;16.47;49.40
50732;BME280;36700;50.488;2.544;2023-05-18T03:58:16;102341.81;;;16.47;49.30
50732;BME280;36700;50.488;2.544;2023-05-18T04:00:45;102341.19;;;16.45;49.76
50732;BME280;36700;50.488;2.544;2023-05-18T04:03:12;102343.03;;;16.44;49.60
50732;BME280;36700;50.488;2.544;2023-05-18T04:05:40;102343.28;;;16.42;49.66
50732;BME280;36700;50.488;2.544;2023-05-18T04:08:08;102346.81;;;16.43;49.70
50732;BME280;36700;50.488;2.544;2023-05-18T04:10:41;102334.28;;;16.42;49.77
50732;BME280;36700;50.488;2.544;2023-05-18T04:13:08;102335.31;;;16.41;49.75
50732;BME280;36700;50.488;2.544;2023-05-18T04:15:34;102337.19;;;16.40;49.74
50732;BME280;36700;50.488;2.544;2023-05-18T04:18:01;102333.84;;;16.38;49.69
50732;BME280;36700;50.488;2.544;2023-05-18T04:20:27;102331.13;;;16.38;49.88
50732;BME280;36700;50.488;2.544;2023-05-18T04:22:54;102337.59;;;16.37;49.96
50732;BME280;36700;50.488;2.544;2023-05-18T04:25:22;102335.94;;;16.36;49.73
50732;BME280;36700;50.488;2.544;2023-05-18T04:27:53;102336.13;;;16.35;49.50
50732;BME280;36700;50.488;2.544;2023-05-18T04:30:19;102335.25;;;16.34;50.02
50732;BME280;36700;50.488;2.544;2023-05-18T04:32:48;102340.69;;;16.34;49.63
50732;BME280;36700;50.488;2.544;2023-05-18T04:35:15;102340.69;;;16.34;49.98
50732;BME280;36700;50.488;2.544;2023-05-18T04:37:41;102336.50;;;16.32;49.87
50732;BME280;36700;50.488;2.544;2023-05-18T04:40:08;102343.81;;;16.31;49.77
50732;BME280;36700;50.488;2.544;2023-05-18T04:42:39;102341.13;;;16.31;49.97
50732;BME280;36700;50.488;2.544;2023-05-18T04:45:11;102340.25;;;16.31;49.92
50732;BME280;36700;50.488;2.544;2023-05-18T04:47:40;102342.16;;;16.30;50.52
50732;BME280;36700;50.488;2.544;2023-05-18T04:50:06;102341.50;;;16.28;50.06
50732;BME280;36700;50.488;2.544;2023-05-18T04:52:32;102338.78;;;16.28;49.96
50732;BME280;36700;50.488;2.544;2023-05-18T04:55:02;102348.81;;;16.27;49.82
50732;BME280;36700;50.488;2.544;2023-05-18T04:57:28;102350.69;;;16.27;49.64
50732;BME280;36700;50.488;2.544;2023-05-18T04:59:53;102347.97;;;16.27;50.28
50732;BME280;36700;50.488;2.544;2023-05-18T05:02:19;102356.13;;;16.27;50.21
50732;BME280;36700;50.488;2.544;2023-05-18T05:04:46;102349.88;;;16.26;49.93
50732;BME280;36700;50.488;2.544;2023-05-18T05:07:11;102348.16;;;16.25;49.91
50732;BME280;36700;50.488;2.544;2023-05-18T05:09:37;102352.78;;;16.25;50.52
50732;BME280;36700;50.488;2.544;2023-05-18T05:12:04;102352.78;;;16.25;49.94
50732;BME280;36700;50.488;2.544;2023-05-18T05:14:31;102350.06;;;16.25;50.07
50732;BME280;36700;50.488;2.544;2023-05-18T05:16:57;102351.91;;;16.24;50.29
50732;BME280;36700;50.488;2.544;2023-05-18T05:19:23;102356.53;;;16.24;49.97
50732;BME280;36700;50.488;2.544;2023-05-18T05:21:49;102357.56;;;16.23;50.07
50732;BME280;36700;50.488;2.544;2023-05-18T05:24:15;102356.53;;;16.24;49.95
50732;BME280;36700;50.488;2.544;2023-05-18T05:26:41;102355.69;;;16.23;49.97
50732;BME280;36700;50.488;2.544;2023-05-18T05:29:06;102356.53;;;16.24;50.01
50732;BME280;36700;50.488;2.544;2023-05-18T05:31:32;102361.09;;;16.23;50.22
50732;BME280;36700;50.488;2.544;2023-05-18T05:33:59;102366.53;;;16.23;50.59
50732;BME280;36700;50.488;2.544;2023-05-18T05:36:25;102366.72;;;16.22;50.15
50732;BME280;36700;50.488;2.544;2023-05-18T05:38:51;102358.59;;;16.22;50.21
50732;BME280;36700;50.488;2.544;2023-05-18T05:41:16;102363.19;;;16.21;49.92
50732;BME280;36700;50.488;2.544;2023-05-18T05:43:42;102358.59;;;16.22;50.22
50732;BME280;36700;50.488;2.544;2023-05-18T05:46:08;102354.19;;;16.21;50.17
50732;BME280;36700;50.488;2.544;2023-05-18T05:48:34;102354.19;;;16.21;50.35
50732;BME280;36700;50.488;2.544;2023-05-18T05:51:01;102350.66;;;16.20;50.09
50732;BME280;36700;50.488;2.544;2023-05-18T05:53:27;102355.25;;;16.20;50.45
50732;BME280;36700;50.488;2.544;2023-05-18T05:55:54;102363.19;;;16.21;50.18
50732;BME280;36700;50.488;2.544;2023-05-18T05:58:20;102362.94;;;16.16;50.38
50732;BME280;36700;50.488;2.544;2023-05-18T06:00:46;102368.81;;;16.20;49.68
50732;BME280;36700;50.488;2.544;2023-05-18T06:03:12;102375.91;;;16.21;50.23
50732;BME280;36700;50.488;2.544;2023-05-18T06:05:37;102385.72;;;16.22;50.12
50732;BME280;36700;50.488;2.544;2023-05-18T06:08:04;102383.00;;;16.22;50.22
50732;BME280;36700;50.488;2.544;2023-05-18T06:10:30;102383.66;;;16.24;50.14
50732;BME280;36700;50.488;2.544;2023-05-18T06:12:55;102382.81;;;16.23;50.23
50732;BME280;36700;50.488;2.544;2023-05-18T06:15:22;102385.53;;;16.23;50.15
50732;BME280;36700;50.488;2.544;2023-05-18T06:17:48;102386.56;;;16.22;50.18
50732;BME280;36700;50.488;2.544;2023-05-18T06:20:14;102385.97;;;16.27;49.86
50732;BME280;36700;50.488;2.544;2023-05-18T06:22:40;102379.38;;;16.36;49.97
50732;BME280;36700;50.488;2.544;2023-05-18T06:25:06;102382.53;;;16.47;49.70
50732;BME280;36700;50.488;2.544;2023-05-18T06:27:33;102379.50;;;16.57;50.15
50732;BME280;36700;50.488;2.544;2023-05-18T06:29:58;102383.50;;;16.67;49.68
50732;BME280;36700;50.488;2.544;2023-05-18T06:32:24;102380.59;;;16.76;49.48
50732;BME280;36700;50.488;2.544;2023-05-18T06:34:51;102383.16;;;16.84;49.21
50732;BME280;36700;50.488;2.544;2023-05-18T06:37:17;102375.44;;;16.88;48.30
50732;BME280;36700;50.488;2.544;2023-05-18T06:39:45;102375.66;;;16.93;48.63
50732;BME280;36700;50.488;2.544;2023-05-18T06:42:11;102381.13;;;17.00;48.01
50732;BME280;36700;50.488;2.544;2023-05-18T06:44:37;102382.44;;;17.04;48.48
50732;BME280;36700;50.488;2.544;2023-05-18T06:47:03;102380.97;;;17.08;48.27
50732;BME280;36700;50.488;2.544;2023-05-18T06:49:29;102369.66;;;17.04;48.06
50732;BME280;36700;50.488;2.544;2023-05-18T06:51:55;102383.91;;;17.13;48.24
50732;BME280;36700;50.488;2.544;2023-05-18T06:54:21;102381.84;;;17.15;48.33
50732;BME280;36700;50.488;2.544;2023-05-18T06:56:47;102381.84;;;17.22;47.90
50732;BME280;36700;50.488;2.544;2023-05-18T06:59:13;102382.50;;;17.31;47.25
50732;BME280;36700;50.488;2.544;2023-05-18T07:01:39;102384.81;;;17.54;47.13
50732;BME280;36700;50.488;2.544;2023-05-18T07:04:06;102388.44;;;17.82;46.07
50732;BME280;36700;50.488;2.544;2023-05-18T07:06:32;102379.63;;;18.13;45.77
50732;BME280;36700;50.488;2.544;2023-05-18T07:08:58;102372.66;;;19.10;43.31
50732;BME280;36700;50.488;2.544;2023-05-18T07:11:23;102381.56;;;20.33;40.47
50732;BME280;36700;50.488;2.544;2023-05-18T07:13:49;102380.72;;;20.89;39.08
50732;BME280;36700;50.488;2.544;2023-05-18T07:16:15;102378.16;;;21.24;38.75
50732;BME280;36700;50.488;2.544;2023-05-18T07:18:41;102381.91;;;21.54;37.74
50732;BME280;36700;50.488;2.544;2023-05-18T07:21:07;102377.72;;;21.82;37.50
50732;BME280;36700;50.488;2.544;2023-05-18T07:23:33;102375.78;;;22.06;37.03
50732;BME280;36700;50.488;2.544;2023-05-18T07:25:59;102374.34;;;22.28;36.75
50732;BME280;36700;50.488;2.544;2023-05-18T07:28:25;102383.06;;;22.13;36.46
50732;BME280;36700;50.488;2.544;2023-05-18T07:30:51;102384.31;;;21.20;36.55
50732;BME280;36700;50.488;2.544;2023-05-18T07:33:17;102387.03;;;20.89;37.63
50732;BME280;36700;50.488;2.544;2023-05-18T07:35:43;102381.59;;;20.52;38.73
50732;BME280;36700;50.488;2.544;2023-05-18T07:38:09;102386.38;;;19.29;41.53
50732;BME280;36700;50.488;2.544;2023-05-18T07:40:35;102385.81;;;18.61;43.66
50732;BME280;36700;50.488;2.544;2023-05-18T07:43:01;102391.56;;;18.33;45.07
50732;BME280;36700;50.488;2.544;2023-05-18T07:45:27;102382.13;;;17.95;46.72
50732;BME280;36700;50.488;2.544;2023-05-18T07:47:54;102384.66;;;17.76;46.93
50732;BME280;36700;50.488;2.544;2023-05-18T07:50:19;102395.75;;;17.68;47.10
50732;BME280;36700;50.488;2.544;2023-05-18T07:52:45;102387.78;;;17.59;47.64
50732;BME280;36700;50.488;2.544;2023-05-18T07:55:11;102389.22;;;17.48;47.92
50732;BME280;36700;50.488;2.544;2023-05-18T07:57:38;102386.09;;;17.45;48.29
50732;BME280;36700;50.488;2.544;2023-05-18T08:00:05;102383.34;;;17.38;48.40
50732;BME280;36700;50.488;2.544;2023-05-18T08:02:31;102386.06;;;17.31;48.86
50732;BME280;36700;50.488;2.544;2023-05-18T08:04:57;102378.94;;;17.23;49.00
50732;BME280;36700;50.488;2.544;2023-05-18T08:07:23;102375.78;;;17.20;49.18
50732;BME280;36700;50.488;2.544;2023-05-18T08:09:51;102383.31;;;17.18;49.72
50732;BME280;36700;50.488;2.544;2023-05-18T08:12:16;102377.84;;;17.11;49.32
50732;BME280;36700;50.488;2.544;2023-05-18T08:14:42;102370.94;;;17.08;49.39
50732;BME280;36700;50.488;2.544;2023-05-18T08:17:08;102368.84;;;17.04;49.37
50732;BME280;36700;50.488;2.544;2023-05-18T08:19:34;102354.56;;;16.95;49.86
50732;BME280;36700;50.488;2.544;2023-05-18T08:22:01;102367.16;;;17.03;49.51
50732;BME280;36700;50.488;2.544;2023-05-18T08:24:27;102368.16;;;17.02;49.86
50732;BME280;36700;50.488;2.544;2023-05-18T08:26:53;102361.47;;;16.98;50.19
50732;BME280;36700;50.488;2.544;2023-05-18T08:29:19;102355.19;;;16.97;50.26
50732;BME280;36700;50.488;2.544;2023-05-18T08:31:45;102366.25;;;16.95;50.22
50732;BME280;36700;50.488;2.544;2023-05-18T08:34:11;102365.44;;;16.95;50.40
50732;BME280;36700;50.488;2.544;2023-05-18T08:36:37;102356.00;;;16.91;50.55
50732;BME280;36700;50.488;2.544;2023-05-18T08:39:03;102370.44;;;16.91;50.63
50732;BME280;36700;50.488;2.544;2023-05-18T08:44:39;102374.59;;;16.87;50.60
50732;BME280;36700;50.488;2.544;2023-05-18T08:47:10;102369.59;;;16.84;50.40
50732;BME280;36700;50.488;2.544;2023-05-18T08:49:40;102375.59;;;16.79;50.20
50732;BME280;36700;50.488;2.544;2023-05-18T08:52:07;102371.41;;;16.70;48.50
50732;BME280;36700;50.488;2.544;2023-05-18T08:54:35;102371.78;;;16.67;48.12
50732;BME280;36700;50.488;2.544;2023-05-18T08:57:03;102370.53;;;16.63;47.50
50732;BME280;36700;50.488;2.544;2023-05-18T08:59:35;102370.72;;;16.61;47.33
50732;BME280;36700;50.488;2.544;2023-05-18T09:02:04;102370.28;;;16.58;46.67
50732;BME280;36700;50.488;2.544;2023-05-18T09:04:31;102371.13;;;16.58;47.00
50732;BME280;36700;50.488;2.544;2023-05-18T09:07:00;102367.78;;;16.56;46.84
50732;BME280;36700;50.488;2.544;2023-05-18T09:09:28;102374.84;;;16.50;46.30
50732;BME280;36700;50.488;2.544;2023-05-18T09:11:55;102374.84;;;16.50;47.13
50732;BME280;36700;50.488;2.544;2023-05-18T09:14:21;102367.94;;;16.48;46.74
50732;BME280;36700;50.488;2.544;2023-05-18T09:16:51;102364.81;;;16.51;47.09
50732;BME280;36700;50.488;2.544;2023-05-18T09:19:18;102367.53;;;16.51;47.00
50732;BME280;36700;50.488;2.544;2023-05-18T09:21:44;102362.28;;;16.49;47.03
50732;BME280;36700;50.488;2.544;2023-05-18T09:24:10;102347.03;;;16.48;47.29
50732;BME280;36700;50.488;2.544;2023-05-18T09:26:37;102362.09;;;16.51;47.98
50732;BME280;36700;50.488;2.544;2023-05-18T09:29:14;102356.28;;;16.54;48.25
50732;BME280;36700;50.488;2.544;2023-05-18T09:31:41;102359.63;;;16.56;48.23
50732;BME280;36700;50.488;2.544;2023-05-18T09:34:07;102350.44;;;16.57;47.71
50732;BME280;36700;50.488;2.544;2023-05-18T09:36:33;102352.09;;;16.58;47.83
50732;BME280;36700;50.488;2.544;2023-05-18T09:38:59;102346.91;;;16.57;47.65
50732;BME280;36700;50.488;2.544;2023-05-18T09:41:31;102354.63;;;16.60;47.23
50732;BME280;36700;50.488;2.544;2023-05-18T09:43:57;102350.84;;;16.54;47.24
50732;BME280;36700;50.488;2.544;2023-05-18T09:46:23;102352.09;;;16.58;47.45
50732;BME280;36700;50.488;2.544;2023-05-18T09:48:51;102353.78;;;16.59;47.32
50732;BME280;36700;50.488;2.544;2023-05-18T09:51:17;102350.44;;;16.57;47.54
50732;BME280;36700;50.488;2.544;2023-05-18T09:53:54;102357.53;;;16.58;47.16
50732;BME280;36700;50.488;2.544;2023-05-18T09:56:22;102344.19;;;16.57;47.35
50732;BME280;36700;50.488;2.544;2023-05-18T09:58:48;102351.28;;;16.58;47.17
50732;BME280;36700;50.488;2.544;2023-05-18T10:01:14;102358.59;;;16.57;47.29
50732;BME280;36700;50.488;2.544;2023-05-18T10:03:40;102341.47;;;16.57;47.41
50732;BME280;36700;50.488;2.544;2023-05-18T10:06:08;102341.66;;;16.55;47.25
50732;BME280;36700;50.488;2.544;2023-05-18T10:08:35;102345.41;;;16.54;47.35
50732;BME280;36700;50.488;2.544;2023-05-18T10:11:02;102345.00;;;16.50;47.40
50732;BME280;36700;50.488;2.544;2023-05-18T10:13:29;102350.81;;;16.47;47.74
50732;BME280;36700;50.488;2.544;2023-05-18T10:16:01;102341.19;;;16.45;46.77
50732;BME280;36700;50.488;2.544;2023-05-18T10:18:29;102340.34;;;16.44;47.02
50732;BME280;36700;50.488;2.544;2023-05-18T10:20:58;102335.31;;;16.41;46.19
50732;BME280;36700;50.488;2.544;2023-05-18T10:23:29;102332.16;;;16.37;45.81
50732;BME280;36700;50.488;2.544;2023-05-18T10:25:56;102330.06;;;16.39;47.11
50732;BME280;36700;50.488;2.544;2023-05-18T10:28:31;102319.84;;;16.35;46.08
50732;BME280;36700;50.488;2.544;2023-05-18T10:30:58;102334.28;;;16.42;46.71
50732;BME280;36700;50.488;2.544;2023-05-18T10:33:27;102335.31;;;16.41;47.23
50732;BME280;36700;50.488;2.544;2023-05-18T10:35:53;102329.69;;;16.42;47.18
50732;BME280;36700;50.488;2.544;2023-05-18T10:38:22;102320.06;;;16.40;46.92
50732;BME280;36700;50.488;2.544;2023-05-18T10:40:51;102320.88;;;16.40;46.81
50732;BME280;36700;50.488;2.544;2023-05-18T10:43:19;102326.31;;;16.40;46.69
50732;BME280;36700;50.488;2.544;2023-05-18T10:45:58;102314.22;;;16.43;47.03
50732;BME280;36700;50.488;2.544;2023-05-18T10:48:25;102314.22;;;16.43;46.67
50732;BME280;36700;50.488;2.544;2023-05-18T10:50:53;102316.13;;;16.42;46.69
50732;BME280;36700;50.488;2.544;2023-05-18T10:53:21;102318.84;;;16.42;46.61
50732;BME280;36700;50.488;2.544;2023-05-18T10:55:48;102310.47;;;16.44;46.91
50732;BME280;36700;50.488;2.544;2023-05-18T10:58:17;102307.56;;;16.46;46.29
50732;BME280;36700;50.488;2.544;2023-05-18T11:00:47;102313.84;;;16.46;46.01
50732;BME280;36700;50.488;2.544;2023-05-18T11:03:15;102310.28;;;16.46;46.48
50732;BME280;36700;50.488;2.544;2023-05-18T11:05:42;102307.16;;;16.49;46.21
50732;BME280;36700;50.488;2.544;2023-05-18T11:08:09;102291.91;;;16.48;46.38
50732;BME280;36700;50.488;2.544;2023-05-18T11:10:40;102297.53;;;16.46;46.69
50732;BME280;36700;50.488;2.544;2023-05-18T11:13:07;102293.16;;;16.45;46.47
50732;BME280;36700;50.488;2.544;2023-05-18T11:18:32;102289.59;;;16.45;46.92
50732;BME280;36700;50.488;2.544;2023-05-18T11:20:59;102283.13;;;16.46;46.90
50732;BME280;36700;50.488;2.544;2023-05-18T11:23:30;102285.00;;;16.45;47.14
50732;BME280;36700;50.488;2.544;2023-05-18T11:26:01;102288.75;;;16.44;47.04
50732;BME280;36700;50.488;2.544;2023-05-18T11:28:41;102286.69;;;16.46;47.21
50732;BME280;36700;50.488;2.544;2023-05-18T11:31:16;102286.03;;;16.44;47.06
50732;BME280;36700;50.488;2.544;2023-05-18T11:33:42;102286.03;;;16.44;47.02
50732;BME280;36700;50.488;2.544;2023-05-18T11:36:12;102276.88;;;16.45;47.31
50732;BME280;36700;50.488;2.544;2023-05-18T11:38:50;102275.16;;;16.44;47.05
50732;BME280;36700;50.488;2.544;2023-05-18T11:44:04;102277.88;;;16.44;47.42
50732;BME280;36700;50.488;2.544;2023-05-18T11:46:35;102275.38;;;16.42;47.41
50732;BME280;36700;50.488;2.544;2023-05-18T11:49:03;102268.47;;;16.40;47.51
50732;BME280;36700;50.488;2.544;2023-05-18T11:51:32;102267.25;;;16.42;47.48
50732;BME280;36700;50.488;2.544;2023-05-18T11:53:58;102271.00;;;16.41;47.67
50732;BME280;36700;50.488;2.544;2023-05-18T11:56:25;102275.38;;;16.42;47.33
50732;BME280;36700;50.488;2.544;2023-05-18T11:59:10;102271.81;;;16.42;47.43
50732;BME280;36700;50.488;2.544;2023-05-18T12:01:37;102259.09;;;16.42;47.64
50732;BME280;36700;50.488;2.544;2023-05-18T12:04:03;102268.06;;;16.43;47.87
50732;BME280;36700;50.488;2.544;2023-05-18T12:06:37;102254.66;;;16.35;47.64
50732;BME280;36700;50.488;2.544;2023-05-18T12:09:03;102272.44;;;16.44;47.82
50732;BME280;36700;50.488;2.544;2023-05-18T12:11:30;102263.47;;;16.44;47.83
50732;BME280;36700;50.488;2.544;2023-05-18T12:13:57;102270.78;;;16.43;47.85
50732;BME280;36700;50.488;2.544;2023-05-18T12:16:24;102266.19;;;16.44;47.70
50732;BME280;36700;50.488;2.544;2023-05-18T12:18:50;102260.97;;;16.42;47.50
50732;BME280;36700;50.488;2.544;2023-05-18T12:21:20;102258.06;;;16.44;47.46
50732;BME280;36700;50.488;2.544;2023-05-18T12:23:46;102257.19;;;16.43;47.91
50732;BME280;36700;50.488;2.544;2023-05-18T12:26:12;102256.16;;;16.44;47.48
50732;BME280;36700;50.488;2.544;2023-05-18T12:28:39;102259.91;;;16.43;47.64
50732;BME280;36700;50.488;2.544;2023-05-18T12:31:05;102254.50;;;16.43;47.58
50732;BME280;36700;50.488;2.544;2023-05-18T12:33:33;102255.34;;;16.44;47.48
50732;BME280;36700;50.488;2.544;2023-05-18T12:35:59;102252.63;;;16.44;47.38
50732;BME280;36700;50.488;2.544;2023-05-18T12:38:25;102251.78;;;16.43;47.49
50732;BME280;36700;50.488;2.544;2023-05-18T12:40:53;102249.06;;;16.43;47.68
50732;BME280;36700;50.488;2.544;2023-05-18T12:43:23;102242.81;;;16.42;47.36
50732;BME280;36700;50.488;2.544;2023-05-18T12:45:51;102246.56;;;16.41;47.67
50732;BME280;36700;50.488;2.544;2023-05-18T12:48:17;102253.66;;;16.42;47.66
50732;BME280;36700;50.488;2.544;2023-05-18T12:50:47;102244.88;;;16.40;47.63
50732;BME280;36700;50.488;2.544;2023-05-18T12:53:13;102248.25;;;16.42;47.32
50732;BME280;36700;50.488;2.544;2023-05-18T12:55:39;102250.94;;;16.42;47.88
50732;BME280;36700;50.488;2.544;2023-05-18T12:58:15;102248.25;;;16.42;47.99
50732;BME280;36700;50.488;2.544;2023-05-18T13:00:46;102250.72;;;16.44;48.26
50732;BME280;36700;50.488;2.544;2023-05-18T13:03:14;102243.44;;;16.45;48.41